createdAt,value
2023-10-09T00:01:47.468Z,4.65
2023-10-09T00:04:17.751Z,5.35
2023-10-09T00:06:45.150Z,4.35
2023-10-09T00:09:23.840Z,4.65
2023-10-09T00:11:57.580Z,4.13
2023-10-09T00:14:26.110Z,4.90
2023-10-09T00:17:11.842Z,4.20
2023-10-09T00:19:38.492Z,4.40
2023-10-09T00:22:25.346Z,5.07
2023-10-09T00:25:10.856Z,3.58
2023-10-09T00:27:42.390Z,4.40
2023-10-09T00:30:20.159Z,3.88
2023-10-09T00:33:00.965Z,4.28
2023-10-09T00:35:38.245Z,4.15
2023-10-09T00:38:32.459Z,3.22
2023-10-09T00:41:06.539Z,3.95
2023-10-09T00:43:36.526Z,3.70
2023-10-09T00:46:05.618Z,3.50
2023-10-09T00:48:38.054Z,3.65
2023-10-09T00:51:22.933Z,3.55
2023-10-09T00:54:00.708Z,3.67
2023-10-09T00:56:28.513Z,3.60
2023-10-09T01:01:57.535Z,2.75
2023-10-09T01:04:26.860Z,2.17
2023-10-09T01:07:12.274Z,3.05
2023-10-09T01:09:39.392Z,2.88
2023-10-09T01:12:06.700Z,2.50
2023-10-09T01:14:42.353Z,2.58
2023-10-09T01:17:10.227Z,2.92
2023-10-09T01:19:37.604Z,2.35
2023-10-09T01:22:14.529Z,2.38
2023-10-09T01:24:41.869Z,2.60
2023-10-09T01:27:17.790Z,3.40
2023-10-09T01:29:47.377Z,2.63
2023-10-09T01:32:21.079Z,2.55
2023-10-09T01:34:51.170Z,2.92
2023-10-09T01:37:20.805Z,2.60
2023-10-09T01:39:52.108Z,2.13
2023-10-09T01:42:29.203Z,2.70
2023-10-09T01:44:56.847Z,2.15
2023-10-09T01:47:23.459Z,1.90
2023-10-09T01:49:54.755Z,2.30
2023-10-09T01:52:21.839Z,2.13
2023-10-09T01:54:52.714Z,2.33
2023-10-09T01:57:24.525Z,1.75
2023-10-09T01:59:54.525Z,2.53
2023-10-09T02:02:29.067Z,2.20
2023-10-09T02:05:14.188Z,1.90
2023-10-09T02:07:53.615Z,1.92
2023-10-09T02:10:30.587Z,1.65
2023-10-09T02:12:59.449Z,1.92
2023-10-09T02:15:45.818Z,2.22
2023-10-09T02:18:26.180Z,2.33
2023-10-09T02:21:00.419Z,2.03
2023-10-09T02:23:41.374Z,1.88
2023-10-09T02:26:18.714Z,2.03
2023-10-09T02:28:45.505Z,2.10
2023-10-09T02:31:13.739Z,1.70
2023-10-09T02:33:40.915Z,1.58
2023-10-09T02:36:08.344Z,2.55
2023-10-09T02:38:41.804Z,1.48
2023-10-09T02:41:14.321Z,1.88
2023-10-09T02:43:47.674Z,2.60
2023-10-09T02:46:36.052Z,1.95
2023-10-09T02:49:07.415Z,1.50
2023-10-09T02:51:34.276Z,1.52
2023-10-09T02:54:20.653Z,1.55
2023-10-09T02:57:11.427Z,1.50
2023-10-09T02:59:42.591Z,1.88
2023-10-09T03:02:09.537Z,2.42
2023-10-09T03:04:36.149Z,2.40
2023-10-09T03:07:04.823Z,1.88
2023-10-09T03:09:33.182Z,1.50
2023-10-09T03:12:05.052Z,1.40
2023-10-09T03:14:39.228Z,1.55
2023-10-09T03:17:12.497Z,1.80
2023-10-09T03:19:40.012Z,1.65
2023-10-09T03:22:11.998Z,1.58
2023-10-09T03:24:48.922Z,1.20
2023-10-09T03:27:18.218Z,2.30
2023-10-09T03:29:50.744Z,1.55
2023-10-09T03:32:17.383Z,1.50
2023-10-09T03:34:44.894Z,1.40
2023-10-09T03:37:23.327Z,1.30
2023-10-09T03:39:52.838Z,1.80
2023-10-09T03:42:23.745Z,1.98
2023-10-09T03:44:54.877Z,1.45
2023-10-09T03:47:23.872Z,1.85
2023-10-09T03:49:52.769Z,1.85
2023-10-09T03:52:20.318Z,1.42
2023-10-09T03:57:21.414Z,1.58
2023-10-09T03:59:48.232Z,1.80
2023-10-09T04:02:17.248Z,1.73
2023-10-09T04:04:48.653Z,1.58
2023-10-09T04:07:18.704Z,1.58
2023-10-09T04:09:55.320Z,1.60
2023-10-09T04:12:22.524Z,1.65
2023-10-09T04:14:56.416Z,1.40
2023-10-09T04:17:36.336Z,1.58
2023-10-09T04:20:16.675Z,2.17
2023-10-09T04:25:30.423Z,1.25
2023-10-09T04:28:19.119Z,1.45
2023-10-09T04:30:56.614Z,1.75
2023-10-09T04:33:44.453Z,1.52
2023-10-09T04:36:31.488Z,1.40
2023-10-09T04:39:07.033Z,1.33
2023-10-09T04:41:52.292Z,1.55
2023-10-09T04:44:20.796Z,1.55
2023-10-09T04:47:07.529Z,1.75
2023-10-09T04:52:27.027Z,1.65
2023-10-09T04:55:08.960Z,1.70
2023-10-09T04:57:45.935Z,1.73
2023-10-09T05:00:43.701Z,2.33
2023-10-09T05:03:13.951Z,3.00
2023-10-09T05:05:44.711Z,2.63
2023-10-09T05:08:28.234Z,2.42
2023-10-09T05:11:00.034Z,2.55
2023-10-09T05:13:43.135Z,2.70
2023-10-09T05:16:16.532Z,2.15
2023-10-09T05:18:46.156Z,3.10
2023-10-09T05:21:45.573Z,3.20
2023-10-09T05:24:13.525Z,3.30
2023-10-09T05:26:48.433Z,2.55
2023-10-09T05:29:33.873Z,2.33
2023-10-09T05:32:01.917Z,2.40
2023-10-09T05:34:35.142Z,2.40
2023-10-09T05:37:18.934Z,3.22
2023-10-09T05:39:59.358Z,2.30
2023-10-09T05:42:43.852Z,2.97
2023-10-09T05:45:19.672Z,3.13
2023-10-09T05:48:05.016Z,3.50
2023-10-09T05:50:35.496Z,2.88
2023-10-09T05:53:03.334Z,3.20
2023-10-09T05:58:34.284Z,2.97
2023-10-09T06:01:26.618Z,3.00
2023-10-09T06:03:56.133Z,2.85
2023-10-09T06:06:35.248Z,2.95
2023-10-09T06:09:16.995Z,3.50
2023-10-09T06:11:51.156Z,3.83
2023-10-09T06:14:47.269Z,3.47
2023-10-09T06:17:24.455Z,4.03
2023-10-09T06:19:59.690Z,4.28
2023-10-09T06:22:44.912Z,3.70
2023-10-09T06:25:12.770Z,3.78
2023-10-09T06:27:48.149Z,3.67
2023-10-09T06:30:20.556Z,3.45
2023-10-09T06:32:59.449Z,4.45
2023-10-09T06:35:32.468Z,3.80
2023-10-09T06:38:03.423Z,3.25
2023-10-09T06:40:49.256Z,3.83
2023-10-09T06:43:18.639Z,3.28
2023-10-09T06:45:45.750Z,3.53
2023-10-09T06:48:37.401Z,3.75
2023-10-09T06:51:13.967Z,3.85
2023-10-09T06:54:07.629Z,5.35
2023-10-09T06:56:34.780Z,3.85
2023-10-09T06:59:14.980Z,3.83
2023-10-09T07:01:45.138Z,3.70
2023-10-09T07:04:20.817Z,3.20
2023-10-09T07:06:52.185Z,3.80
2023-10-09T07:09:22.559Z,3.08
2023-10-09T07:11:53.406Z,3.38
2023-10-09T07:14:33.481Z,3.90
2023-10-09T07:17:29.104Z,3.05
2023-10-09T07:19:55.789Z,3.58
2023-10-09T07:22:22.933Z,3.08
2023-10-09T07:25:14.877Z,2.92
2023-10-09T07:27:52.728Z,4.22
2023-10-09T07:30:32.989Z,3.90
2023-10-09T07:33:14.169Z,5.30
2023-10-09T07:35:45.564Z,4.97
2023-10-09T07:38:36.685Z,6.32
2023-10-09T07:41:07.613Z,5.20
2023-10-09T07:43:41.293Z,5.32
2023-10-09T07:46:27.394Z,5.53
2023-10-09T07:48:54.806Z,5.32
2023-10-09T07:51:32.063Z,5.22
2023-10-09T07:54:09.761Z,5.13
2023-10-09T07:56:54.424Z,5.25
2023-10-09T07:59:21.002Z,5.22
2023-10-09T08:01:56.129Z,5.22
2023-10-09T08:04:39.626Z,4.68
2023-10-09T08:08:05.488Z,5.47
2023-10-09T08:10:14.339Z,4.60
2023-10-09T08:12:50.454Z,4.50
2023-10-09T08:15:21.280Z,4.93
2023-10-09T08:18:00.630Z,4.43
2023-10-09T08:20:29.428Z,4.95
2023-10-09T08:22:59.512Z,4.75
2023-10-09T08:25:29.161Z,5.10
2023-10-09T08:28:20.752Z,4.63
2023-10-09T08:31:03.813Z,5.38
2023-10-09T08:36:16.474Z,3.92
2023-10-09T08:38:43.322Z,4.68
2023-10-09T08:41:18.823Z,4.07
2023-10-09T08:43:52.121Z,3.95
2023-10-09T08:46:30.046Z,3.63
2023-10-09T08:48:58.163Z,3.85
2023-10-09T08:51:29.356Z,4.05
2023-10-09T08:53:57.258Z,3.70
2023-10-09T08:56:24.587Z,4.25
2023-10-09T08:58:56.961Z,3.58
2023-10-09T09:01:26.309Z,3.60
2023-10-09T09:03:56.872Z,3.60
2023-10-09T09:06:24.344Z,3.38
2023-10-09T09:08:56.464Z,3.10
2023-10-09T09:11:26.391Z,3.85
2023-10-09T09:14:30.419Z,3.90
2023-10-09T09:16:57.154Z,3.50
2023-10-09T09:19:33.415Z,3.70
2023-10-09T09:22:00.642Z,2.88
2023-10-09T09:24:27.337Z,2.88
2023-10-09T09:27:01.937Z,3.75
2023-10-09T09:29:37.671Z,3.17
2023-10-09T09:32:19.005Z,2.50
2023-10-09T09:34:50.967Z,2.97
2023-10-09T09:37:31.999Z,2.80
2023-10-09T09:40:01.698Z,2.92
2023-10-09T09:42:32.682Z,3.05
2023-10-09T09:45:01.795Z,2.80
2023-10-09T09:47:28.939Z,2.65
2023-10-09T09:50:13.796Z,2.75
2023-10-09T09:52:40.987Z,3.47
2023-10-09T09:55:18.946Z,3.17
2023-10-09T09:57:52.959Z,2.53
2023-10-09T10:00:43.899Z,3.08
2023-10-09T10:03:15.899Z,2.60
2023-10-09T10:05:47.529Z,2.95
2023-10-09T10:08:21.330Z,2.28
2023-10-09T10:13:50.003Z,2.20
2023-10-09T10:16:19.950Z,2.78
2023-10-09T10:19:08.726Z,2.38
2023-10-09T10:21:42.416Z,2.33
2023-10-09T10:24:30.253Z,2.47
2023-10-09T10:27:19.333Z,2.28
2023-10-09T10:29:51.411Z,2.42
2023-10-09T10:32:19.514Z,2.53
2023-10-09T10:35:07.553Z,2.30
2023-10-09T10:37:40.738Z,2.53
2023-10-09T10:40:14.969Z,2.80
2023-10-09T10:43:10.828Z,2.03
2023-10-09T10:45:39.511Z,2.20
2023-10-09T10:48:11.078Z,2.42
2023-10-09T10:50:38.762Z,2.17
2023-10-09T10:53:17.202Z,1.90
2023-10-09T10:56:15.597Z,2.63
2023-10-09T10:58:55.159Z,1.70
2023-10-09T11:01:27.220Z,2.30
2023-10-09T11:03:56.800Z,2.25
2023-10-09T11:06:38.116Z,1.95
2023-10-09T11:09:46.690Z,2.00
2023-10-09T11:12:25.132Z,1.80
2023-10-09T11:15:07.679Z,1.75
2023-10-09T11:17:36.797Z,1.80
2023-10-09T11:20:23.568Z,1.52
2023-10-09T11:23:12.008Z,1.80
2023-10-09T11:25:51.813Z,1.80
2023-10-09T11:28:31.378Z,2.60
2023-10-09T11:31:16.706Z,1.90
2023-10-09T11:33:52.473Z,2.13
2023-10-09T11:36:32.703Z,1.83
2023-10-09T11:39:17.699Z,1.27
2023-10-09T11:41:45.425Z,1.60
2023-10-09T11:47:20.891Z,1.33
2023-10-09T11:50:01.586Z,1.40
2023-10-09T11:52:57.557Z,1.98
2023-10-09T11:55:26.374Z,1.98
2023-10-09T11:57:52.934Z,1.73
2023-10-09T12:00:32.040Z,1.75
2023-10-09T12:03:06.227Z,1.67
2023-10-09T12:05:34.907Z,1.60
2023-10-09T12:08:02.958Z,1.95
2023-10-09T12:10:31.031Z,1.70
2023-10-09T12:13:00.427Z,1.30
2023-10-09T12:15:37.920Z,1.58
2023-10-09T12:18:16.146Z,1.75
2023-10-09T12:20:48.860Z,1.63
2023-10-09T12:23:16.064Z,1.80
2023-10-09T12:25:46.003Z,1.95
2023-10-09T12:28:16.107Z,1.67
2023-10-09T12:30:42.878Z,1.80
2023-10-09T12:33:10.117Z,2.17
2023-10-09T12:35:40.876Z,1.63
2023-10-09T12:38:11.394Z,1.20
2023-10-09T12:40:39.553Z,1.08
2023-10-09T12:43:06.675Z,1.65
2023-10-09T12:45:35.631Z,1.90
2023-10-09T12:48:04.695Z,1.40
2023-10-09T12:50:34.893Z,1.52
2023-10-09T12:53:08.523Z,1.45
2023-10-09T12:55:41.716Z,1.75
2023-10-09T12:58:10.585Z,1.70
2023-10-09T13:00:39.330Z,1.35
2023-10-09T13:03:17.685Z,1.33
2023-10-09T13:05:56.115Z,1.25
2023-10-09T13:08:36.509Z,1.73
2023-10-09T13:11:11.847Z,1.38
2023-10-09T13:13:52.177Z,2.00
2023-10-09T13:16:26.995Z,1.60
2023-10-09T13:18:57.800Z,1.73
2023-10-09T13:21:27.485Z,1.50
2023-10-09T13:23:58.722Z,1.50
2023-10-09T13:26:34.709Z,1.50
2023-10-09T13:29:04.855Z,1.58
2023-10-09T13:31:36.385Z,1.70
2023-10-09T13:34:12.481Z,1.25
2023-10-09T13:36:39.200Z,1.35
2023-10-09T13:39:26.325Z,1.33
2023-10-09T13:42:01.212Z,2.22
2023-10-09T13:44:29.692Z,1.67
2023-10-09T13:46:57.700Z,1.30
2023-10-09T13:49:30.832Z,1.75
2023-10-09T13:51:58.008Z,1.83
2023-10-09T13:54:33.575Z,1.20
2023-10-09T13:57:07.558Z,1.42
2023-10-09T13:59:43.638Z,1.58
2023-10-09T14:02:11.417Z,1.30
2023-10-09T14:04:38.603Z,1.35
2023-10-09T14:07:07.282Z,1.40
2023-10-09T14:09:40.018Z,2.03
2023-10-09T14:12:08.759Z,1.63
2023-10-09T14:14:39.528Z,1.70
2023-10-09T14:17:13.522Z,1.50
2023-10-09T14:22:18.070Z,1.55
2023-10-09T14:24:49.552Z,1.60
2023-10-09T14:27:18.937Z,1.30
2023-10-09T14:29:49.591Z,1.70
2023-10-09T14:32:17.480Z,1.00
2023-10-09T14:34:51.648Z,1.52
2023-10-09T14:37:20.408Z,1.20
2023-10-09T14:39:50.186Z,1.92
2023-10-09T14:42:17.778Z,1.83
2023-10-09T14:44:48.842Z,1.60
2023-10-09T14:47:15.894Z,1.20
2023-10-09T14:49:48.024Z,1.52
2023-10-09T14:52:18.084Z,1.60
2023-10-09T14:54:47.656Z,1.38
2023-10-09T14:57:15.032Z,1.60
2023-10-09T14:59:44.338Z,1.17
2023-10-09T15:02:13.531Z,1.50
2023-10-09T15:04:40.990Z,1.55
2023-10-09T15:07:08.442Z,1.33
2023-10-09T15:09:37.938Z,1.77
2023-10-09T15:12:08.865Z,1.30
2023-10-09T15:14:35.901Z,1.65
2023-10-09T15:17:04.131Z,1.52
2023-10-09T15:19:31.182Z,1.58
2023-10-09T15:21:59.999Z,1.77
2023-10-09T15:24:28.990Z,2.00
2023-10-09T15:26:58.883Z,1.10
2023-10-09T15:29:29.762Z,1.50
2023-10-09T15:31:57.277Z,1.10
2023-10-09T15:34:25.829Z,2.00
2023-10-09T15:36:54.635Z,1.88
2023-10-09T15:39:22.617Z,1.45
2023-10-09T15:41:49.979Z,1.42
2023-10-09T15:44:17.829Z,1.50
2023-10-09T15:46:48.126Z,1.30
2023-10-09T15:49:17.538Z,1.83
2023-10-09T15:51:44.842Z,1.30
2023-10-09T15:54:13.684Z,1.27
2023-10-09T15:56:46.054Z,1.23
2023-10-09T15:59:18.052Z,1.40
2023-10-09T16:01:45.178Z,1.40
2023-10-09T16:04:12.217Z,1.35
2023-10-09T16:06:42.546Z,1.50
2023-10-09T16:09:12.890Z,2.08
2023-10-09T16:11:40.954Z,1.58
2023-10-09T16:14:10.854Z,1.90
2023-10-09T16:16:45.988Z,1.80
2023-10-09T16:19:13.509Z,1.40
2023-10-09T16:21:40.804Z,1.73
2023-10-09T16:24:10.561Z,1.77
2023-10-09T16:26:46.527Z,1.45
2023-10-09T16:29:13.656Z,1.45
2023-10-09T16:31:42.048Z,1.40
2023-10-09T16:34:09.891Z,1.35
2023-10-09T16:36:39.561Z,1.90
2023-10-09T16:39:06.386Z,2.00
2023-10-09T16:41:41.176Z,1.67
2023-10-09T16:44:11.275Z,1.30
2023-10-09T16:46:40.947Z,1.50
2023-10-09T16:49:09.704Z,1.15
2023-10-09T16:51:36.618Z,1.92
2023-10-09T16:54:04.270Z,1.17
2023-10-09T16:56:34.629Z,1.92
2023-10-09T16:59:01.857Z,1.55
2023-10-09T17:01:29.064Z,1.33
2023-10-09T17:03:58.919Z,1.17
2023-10-09T17:06:30.184Z,1.48
2023-10-09T17:08:58.297Z,1.50
2023-10-09T17:11:25.881Z,1.45
2023-10-09T17:13:55.867Z,1.88
2023-10-09T17:16:25.036Z,1.80
2023-10-09T17:18:57.352Z,1.70
2023-10-09T17:21:24.557Z,2.38
2023-10-09T17:23:54.361Z,3.25
2023-10-09T17:26:23.811Z,2.85
2023-10-09T17:28:54.690Z,2.58
2023-10-09T17:31:24.740Z,2.70
2023-10-09T17:33:55.027Z,2.58
2023-10-09T17:36:22.585Z,2.72
2023-10-09T17:38:52.683Z,3.50
2023-10-09T17:41:22.429Z,4.35
2023-10-09T17:43:51.534Z,4.55
2023-10-09T17:46:19.134Z,3.05
2023-10-09T17:48:46.394Z,2.90
2023-10-09T17:51:13.214Z,4.00
2023-10-09T17:53:40.830Z,4.25
2023-10-09T17:56:11.200Z,4.03
2023-10-09T17:58:38.185Z,3.45
2023-10-09T18:01:09.820Z,4.43
2023-10-09T18:03:39.264Z,3.65
2023-10-09T18:06:06.518Z,3.90
2023-10-09T18:08:33.214Z,4.25
2023-10-09T18:11:01.746Z,4.10
2023-10-09T18:13:29.649Z,4.40
2023-10-09T18:16:13.136Z,4.15
2023-10-09T18:18:51.546Z,4.05
2023-10-09T18:21:21.150Z,4.03
2023-10-09T18:23:49.163Z,4.00
2023-10-09T18:26:16.444Z,3.97
2023-10-09T18:28:45.970Z,4.25
2023-10-09T18:31:14.808Z,3.83
2023-10-09T18:33:44.640Z,4.75
2023-10-09T18:36:12.438Z,3.60
2023-10-09T18:38:39.748Z,3.72
2023-10-09T18:41:11.981Z,4.82
2023-10-09T18:43:43.040Z,3.60
2023-10-09T18:46:12.859Z,3.90
2023-10-09T18:48:40.237Z,4.82
2023-10-09T18:51:08.846Z,4.13
2023-10-09T18:53:35.688Z,3.85
2023-10-09T18:56:02.800Z,3.90
2023-10-09T18:58:29.761Z,4.05
2023-10-09T19:01:03.217Z,3.88
2023-10-09T19:05:57.445Z,4.18
2023-10-09T19:08:24.350Z,4.25
2023-10-09T19:11:00.121Z,4.20
2023-10-09T19:13:27.088Z,3.75
2023-10-09T19:15:53.710Z,4.88
2023-10-09T19:18:20.672Z,5.00
2023-10-09T19:20:47.922Z,5.05
2023-10-09T19:23:14.738Z,4.78
2023-10-09T19:25:44.330Z,6.10
2023-10-09T19:28:13.322Z,6.00
2023-10-09T19:30:40.012Z,4.75
2023-10-09T19:33:07.068Z,5.18
2023-10-09T19:35:41.494Z,4.20
2023-10-09T19:38:09.424Z,4.57
2023-10-09T19:40:36.543Z,4.40
2023-10-09T19:43:03.437Z,4.55
2023-10-09T19:45:31.496Z,5.35
2023-10-09T19:47:58.330Z,5.20
2023-10-09T19:50:26.470Z,4.75
2023-10-09T19:52:53.303Z,4.50
2023-10-09T19:55:22.784Z,4.65
2023-10-09T19:57:49.818Z,4.28
2023-10-09T20:00:22.534Z,4.25
2023-10-09T20:02:55.254Z,5.13
2023-10-09T20:05:23.924Z,5.18
2023-10-09T20:07:50.885Z,4.50
2023-10-09T20:10:19.501Z,4.68
2023-10-09T20:12:46.605Z,4.43
2023-10-09T20:15:14.667Z,4.45
2023-10-09T20:17:44.711Z,4.60
2023-10-09T20:20:13.089Z,5.03
2023-10-09T20:22:40.784Z,5.70
2023-10-09T20:25:18.419Z,4.82
2023-10-09T20:27:44.981Z,4.30
2023-10-09T20:30:15.977Z,4.70
2023-10-09T20:32:43.013Z,4.47
2023-10-09T20:35:13.388Z,4.50
2023-10-09T20:37:41.705Z,4.85
2023-10-09T20:40:19.122Z,5.15
2023-10-09T20:42:47.416Z,4.75
2023-10-09T20:45:14.605Z,4.40
2023-10-09T20:47:49.200Z,3.42
2023-10-09T20:50:16.103Z,4.25
2023-10-09T20:52:47.227Z,4.10
2023-10-09T20:55:20.221Z,4.15
2023-10-09T20:57:47.569Z,3.97
2023-10-09T21:00:20.397Z,3.67
2023-10-09T21:02:48.296Z,4.13
2023-10-09T21:05:16.323Z,4.10
2023-10-09T21:07:47.931Z,4.25
2023-10-09T21:10:15.905Z,4.28
2023-10-09T21:12:43.393Z,3.65
2023-10-09T21:15:11.384Z,3.75
2023-10-09T21:17:47.649Z,3.55
2023-10-09T21:20:18.379Z,3.72
2023-10-09T21:22:51.656Z,3.55
2023-10-09T21:25:27.742Z,3.50
2023-10-09T21:27:57.945Z,3.88
2023-10-09T21:30:25.764Z,3.85
2023-10-09T21:32:55.113Z,3.53
2023-10-09T21:35:23.345Z,3.85
2023-10-09T21:37:53.474Z,3.30
2023-10-09T21:40:32.075Z,3.33
2023-10-09T21:43:00.374Z,4.10
2023-10-09T21:45:28.172Z,4.03
2023-10-09T21:47:58.986Z,4.00
2023-10-09T21:50:27.548Z,3.72
2023-10-09T21:52:59.029Z,4.10
2023-10-09T21:55:28.486Z,4.00
2023-10-09T21:57:56.309Z,3.65
2023-10-09T22:00:32.364Z,3.72
2023-10-09T22:03:09.364Z,3.30
2023-10-09T22:05:43.232Z,4.18
2023-10-09T22:10:38.393Z,3.05
2023-10-09T22:13:08.963Z,3.78
2023-10-09T22:15:36.162Z,3.38
2023-10-09T22:18:11.052Z,3.58
2023-10-09T22:20:38.762Z,3.55
2023-10-09T22:23:11.764Z,3.85
2023-10-09T22:25:38.358Z,3.30
2023-10-09T22:28:10.245Z,3.55
2023-10-09T22:30:37.699Z,3.30
2023-10-09T22:33:06.143Z,3.88
2023-10-09T22:35:34.721Z,3.92
2023-10-09T22:38:09.088Z,3.10
2023-10-09T22:40:39.650Z,3.30
2023-10-09T22:43:10.028Z,3.05
2023-10-09T22:45:40.393Z,3.38
2023-10-09T22:48:07.703Z,2.83
2023-10-09T22:50:37.237Z,4.22
2023-10-09T22:53:25.779Z,2.40
2023-10-09T22:55:53.823Z,3.42
2023-10-09T22:58:27.740Z,2.70
2023-10-09T23:00:56.430Z,2.67
2023-10-09T23:03:29.928Z,2.83
2023-10-09T23:06:34.232Z,2.72
2023-10-09T23:09:15.918Z,2.83
2023-10-09T23:11:55.506Z,2.80
2023-10-09T23:14:28.772Z,3.10
2023-10-09T23:17:07.637Z,3.58
2023-10-09T23:19:39.891Z,2.72
2023-10-09T23:22:08.087Z,3.38
2023-10-09T23:24:54.808Z,3.17
2023-10-09T23:27:37.931Z,3.22
2023-10-09T23:30:15.372Z,2.83
2023-10-09T23:32:53.276Z,2.70
2023-10-09T23:35:22.521Z,3.17
2023-10-09T23:38:08.916Z,4.25
2023-10-09T23:40:42.058Z,3.72
2023-10-09T23:43:34.096Z,2.63
2023-10-09T23:48:29.162Z,2.10
2023-10-09T23:51:05.000Z,2.47
2023-10-09T23:53:36.687Z,2.97
2023-10-09T23:56:11.333Z,2.72
2023-10-09T23:58:41.984Z,2.65
